INFORMACIÓN METAR y TAF
METAR FOR GCLA
ADDS - METARS form results

(0956 UTC 03 December 2021)
Data provider http://aviationweather.gov/metar/data/
 
METAR text: GCLA 030932Z 01010KT 340V050 3000 RA SCT030 BKN042 18/14 Q1024
Conditions at: GCLA (LA PALMA AIRPORT, ES) observed 0932 UTC 03 December 2021
Temperature: 18.0°C (64°F)
Dewpoint: 14.0°C (57°F) [RH = 77%]
Pressure (altimeter): 30.24 inches Hg (1024.0 mb)
Winds: from the N (10 degrees) at 12 MPH (10 knots; 5.1 m/s)
Visibility: 1.86 miles (2.99 km)
Ceiling: 4200 feet AGL
Clouds: scattered clouds at 3000 feet AGL
broken clouds at 4200 feet AGL
Weather: RA  (moderate rain)

METAR text: GCLA 030930Z 36012KT 9999 SCT030 BKN042 18/14 Q1024
Conditions at: GCLA (LA PALMA AIRPORT, ES) observed 0930 UTC 03 December 2021
Temperature: 18.0°C (64°F)
Dewpoint: 14.0°C (57°F) [RH = 77%]
Pressure (altimeter): 30.24 inches Hg (1024.0 mb)
Winds: from the N (360 degrees) at 14 MPH (12 knots; 6.2 m/s)
Visibility: 6 or more miles (10+ km)
Ceiling: 4200 feet AGL
Clouds: scattered clouds at 3000 feet AGL
broken clouds at 4200 feet AGL
Weather: no significant weather observed at this time

METAR text: GCLA 030900Z 34011KT 9999 FEW038 BKN055 19/13 Q1024
Conditions at: GCLA (LA PALMA AIRPORT, ES) observed 0900 UTC 03 December 2021
Temperature: 19.0°C (66°F)
Dewpoint: 13.0°C (55°F) [RH = 68%]
Pressure (altimeter): 30.24 inches Hg (1024.0 mb)
Winds: from the NNW (340 degrees) at 13 MPH (11 knots; 5.7 m/s)
Visibility: 6 or more miles (10+ km)
Ceiling: 5500 feet AGL
Clouds: few clouds at 3800 feet AGL
broken clouds at 5500 feet AGL
Weather: no significant weather observed at this time

Forecast for: GCLA (LA PALMA AIRPORT, ES)
Text: TAF GCLA 030800Z 0309/0409 02016KT 9999 FEW035 SCT040 TX22/0311Z TN19/0406Z
Forecast period: 0900 UTC 03 December 2021 to 0900 UTC 04 December 2021
Forecast type: FROM: standard forecast or significant change
Winds: from the NNE (20 degrees) at 18 MPH (16 knots; 8.2 m/s)
Visibility: 6 or more miles (10+ km)
Ceiling: at least 12,000 feet AGL
Clouds: few clouds at 3500 feet AGL
scattered clouds at 4000 feet AGL
Weather: no significant weather forecast for this period
Text: PROB40
Forecast period: 0900 to 1100 UTC 03 December 2021
Forecast type: TEMPORARY: The following changes expected for less than half the time period
Visibility: missing
Ceiling: unknown
Clouds: missing
Weather: RA  (moderate rain)

 MAPA DE AEROPUERTO

 INFORMACIÓN DE PISTA
Pista 01 Longitud 7218 ft Ancho 148 ft
Elevación 103 ft Umbral desplazado 0 ft Rumbo de pista 359
Pista 19 Longitud 7218 ft Ancho 148 ft
Elevación 65 ft Umbral desplazado 0 ft Rumbo de pista 179

 FRECUANCIAS DEL AEROPUERTO
Tipo APP Nombre CANARIAS A Frecuencia 126.1 MHZ
Tipo ATIS Nombre INFO Frecuencia 118.6 MHZ
Tipo GND Nombre GND Frecuencia 121.8 MHZ
Tipo TWR Nombre TWR Frecuencia 118.9 MHZ

 RADIO AYUDAS DEL AEROPUERTO
Tipo DME Nombre La Palma Frecuencia 112400 KHZ
Tipo NDB Nombre La Palma Frecuencia 389 KHZ



Powered by Virtual Airlines Manager [v2.6.2]